sensor_id;sensor_type;location;lat;lon;timestamp;P1;durP1;ratioP1;P2;durP2;ratioP2
16800;SDS011;8518;53.236;10.384;2023-04-25T00:00:17;10.03;;;5.63;;
16800;SDS011;8518;53.236;10.384;2023-04-25T00:06:08;8.33;;;5.80;;
16800;SDS011;8518;53.236;10.384;2023-04-25T00:08:33;7.03;;;5.60;;
16800;SDS011;8518;53.236;10.384;2023-04-25T00:11:02;9.23;;;6.13;;
16800;SDS011;8518;53.236;10.384;2023-04-25T00:16:51;7.13;;;5.40;;
16800;SDS011;8518;53.236;10.384;2023-04-25T00:19:16;7.33;;;5.17;;
16800;SDS011;8518;53.236;10.384;2023-04-25T00:21:43;8.93;;;5.10;;
16800;SDS011;8518;53.236;10.384;2023-04-25T00:27:43;6.60;;;4.80;;
16800;SDS011;8518;53.236;10.384;2023-04-25T00:30:08;8.47;;;5.93;;
16800;SDS011;8518;53.236;10.384;2023-04-25T00:32:38;11.70;;;6.53;;
16800;SDS011;8518;53.236;10.384;2023-04-25T00:35:04;8.30;;;5.60;;
16800;SDS011;8518;53.236;10.384;2023-04-25T00:37:32;8.00;;;5.40;;
16800;SDS011;8518;53.236;10.384;2023-04-25T00:39:58;7.67;;;5.80;;
16800;SDS011;8518;53.236;10.384;2023-04-25T00:42:26;9.60;;;6.13;;
16800;SDS011;8518;53.236;10.384;2023-04-25T00:44:55;8.77;;;5.83;;
16800;SDS011;8518;53.236;10.384;2023-04-25T00:47:23;11.20;;;6.73;;
16800;SDS011;8518;53.236;10.384;2023-04-25T00:49:50;8.90;;;6.10;;
16800;SDS011;8518;53.236;10.384;2023-04-25T00:52:18;8.67;;;6.30;;
16800;SDS011;8518;53.236;10.384;2023-04-25T00:54:49;7.27;;;6.27;;
16800;SDS011;8518;53.236;10.384;2023-04-25T00:57:14;8.83;;;6.67;;
16800;SDS011;8518;53.236;10.384;2023-04-25T00:59:40;8.20;;;6.50;;
16800;SDS011;8518;53.236;10.384;2023-04-25T01:02:09;10.17;;;6.70;;
16800;SDS011;8518;53.236;10.384;2023-04-25T01:07:58;10.03;;;7.83;;
16800;SDS011;8518;53.236;10.384;2023-04-25T01:10:24;8.80;;;7.40;;
16800;SDS011;8518;53.236;10.384;2023-04-25T01:16:11;6.97;;;6.20;;
16800;SDS011;8518;53.236;10.384;2023-04-25T01:22:02;7.90;;;5.33;;
16800;SDS011;8518;53.236;10.384;2023-04-25T01:27:51;12.23;;;3.77;;
16800;SDS011;8518;53.236;10.384;2023-04-25T01:30:19;8.17;;;3.93;;
16800;SDS011;8518;53.236;10.384;2023-04-25T01:36:08;10.03;;;3.77;;
16800;SDS011;8518;53.236;10.384;2023-04-25T01:38:37;12.43;;;3.53;;
16800;SDS011;8518;53.236;10.384;2023-04-25T01:41:03;12.87;;;3.90;;
16800;SDS011;8518;53.236;10.384;2023-04-25T01:46:51;11.17;;;4.13;;
16800;SDS011;8518;53.236;10.384;2023-04-25T01:49:20;13.37;;;4.03;;
16800;SDS011;8518;53.236;10.384;2023-04-25T01:51:46;15.70;;;3.83;;
16800;SDS011;8518;53.236;10.384;2023-04-25T01:57:33;10.20;;;3.23;;
16800;SDS011;8518;53.236;10.384;2023-04-25T02:03:21;15.57;;;3.90;;
16800;SDS011;8518;53.236;10.384;2023-04-25T02:05:50;18.30;;;3.90;;
16800;SDS011;8518;53.236;10.384;2023-04-25T02:08:16;20.70;;;4.40;;
16800;SDS011;8518;53.236;10.384;2023-04-25T02:10:42;19.30;;;4.43;;
16800;SDS011;8518;53.236;10.384;2023-04-25T02:16:32;18.33;;;4.33;;
16800;SDS011;8518;53.236;10.384;2023-04-25T02:22:19;14.67;;;3.57;;
16800;SDS011;8518;53.236;10.384;2023-04-25T02:24:45;18.20;;;4.10;;
16800;SDS011;8518;53.236;10.384;2023-04-25T02:27:11;14.73;;;3.77;;
16800;SDS011;8518;53.236;10.384;2023-04-25T02:29:40;13.40;;;3.90;;
16800;SDS011;8518;53.236;10.384;2023-04-25T02:32:05;14.27;;;4.33;;
16800;SDS011;8518;53.236;10.384;2023-04-25T02:37:54;14.67;;;4.13;;
16800;SDS011;8518;53.236;10.384;2023-04-25T02:40:19;15.80;;;4.77;;
16800;SDS011;8518;53.236;10.384;2023-04-25T02:46:07;14.60;;;3.20;;
16800;SDS011;8518;53.236;10.384;2023-04-25T02:48:33;19.20;;;4.37;;
16800;SDS011;8518;53.236;10.384;2023-04-25T02:50:59;16.23;;;4.00;;
16800;SDS011;8518;53.236;10.384;2023-04-25T02:56:46;21.43;;;4.13;;
16800;SDS011;8518;53.236;10.384;2023-04-25T02:59:12;21.63;;;4.53;;
16800;SDS011;8518;53.236;10.384;2023-04-25T03:01:38;15.97;;;4.33;;
16800;SDS011;8518;53.236;10.384;2023-04-25T03:04:04;14.13;;;3.97;;
16800;SDS011;8518;53.236;10.384;2023-04-25T03:06:31;18.60;;;4.47;;
16800;SDS011;8518;53.236;10.384;2023-04-25T03:08:56;17.20;;;4.17;;
16800;SDS011;8518;53.236;10.384;2023-04-25T03:11:23;18.90;;;4.07;;
16800;SDS011;8518;53.236;10.384;2023-04-25T03:17:12;20.63;;;4.73;;
16800;SDS011;8518;53.236;10.384;2023-04-25T03:19:38;18.03;;;5.00;;
16800;SDS011;8518;53.236;10.384;2023-04-25T03:22:03;20.73;;;4.57;;
16800;SDS011;8518;53.236;10.384;2023-04-25T03:27:51;22.70;;;5.03;;
16800;SDS011;8518;53.236;10.384;2023-04-25T03:30:16;19.13;;;4.50;;
16800;SDS011;8518;53.236;10.384;2023-04-25T03:32:42;20.27;;;4.30;;
16800;SDS011;8518;53.236;10.384;2023-04-25T03:35:11;16.43;;;4.13;;
16800;SDS011;8518;53.236;10.384;2023-04-25T03:37:36;17.37;;;4.10;;
16800;SDS011;8518;53.236;10.384;2023-04-25T03:40:02;13.17;;;4.00;;
16800;SDS011;8518;53.236;10.384;2023-04-25T03:42:29;15.93;;;4.20;;
16800;SDS011;8518;53.236;10.384;2023-04-25T03:44:56;18.77;;;4.03;;
16800;SDS011;8518;53.236;10.384;2023-04-25T03:47:21;15.87;;;4.63;;
16800;SDS011;8518;53.236;10.384;2023-04-25T03:49:47;18.43;;;3.77;;
16800;SDS011;8518;53.236;10.384;2023-04-25T03:52:14;22.17;;;4.20;;
16800;SDS011;8518;53.236;10.384;2023-04-25T03:54:40;15.70;;;4.23;;
16800;SDS011;8518;53.236;10.384;2023-04-25T03:57:06;23.90;;;4.83;;
16800;SDS011;8518;53.236;10.384;2023-04-25T03:59:38;17.77;;;4.23;;
16800;SDS011;8518;53.236;10.384;2023-04-25T04:02:04;22.63;;;4.50;;
16800;SDS011;8518;53.236;10.384;2023-04-25T04:04:29;14.80;;;4.10;;
16800;SDS011;8518;53.236;10.384;2023-04-25T04:06:55;15.67;;;3.93;;
16800;SDS011;8518;53.236;10.384;2023-04-25T04:09:23;15.93;;;3.70;;
16800;SDS011;8518;53.236;10.384;2023-04-25T04:11:52;15.07;;;4.43;;
16800;SDS011;8518;53.236;10.384;2023-04-25T04:17:40;17.43;;;4.30;;
16800;SDS011;8518;53.236;10.384;2023-04-25T04:20:06;13.40;;;3.60;;
16800;SDS011;8518;53.236;10.384;2023-04-25T04:22:34;14.13;;;4.33;;
16800;SDS011;8518;53.236;10.384;2023-04-25T04:25:01;17.30;;;3.93;;
16800;SDS011;8518;53.236;10.384;2023-04-25T04:27:27;19.30;;;4.70;;
16800;SDS011;8518;53.236;10.384;2023-04-25T04:29:54;17.90;;;3.70;;
16800;SDS011;8518;53.236;10.384;2023-04-25T04:32:19;15.33;;;4.57;;
16800;SDS011;8518;53.236;10.384;2023-04-25T04:34:48;19.67;;;4.30;;
16800;SDS011;8518;53.236;10.384;2023-04-25T04:37:14;18.63;;;4.10;;
16800;SDS011;8518;53.236;10.384;2023-04-25T04:39:43;16.40;;;4.43;;
16800;SDS011;8518;53.236;10.384;2023-04-25T04:42:08;15.70;;;4.53;;
16800;SDS011;8518;53.236;10.384;2023-04-25T04:47:58;13.80;;;3.57;;
16800;SDS011;8518;53.236;10.384;2023-04-25T04:50:23;10.80;;;3.70;;
16800;SDS011;8518;53.236;10.384;2023-04-25T04:56:11;16.83;;;3.83;;
16800;SDS011;8518;53.236;10.384;2023-04-25T04:58:37;17.80;;;4.20;;
16800;SDS011;8518;53.236;10.384;2023-04-25T05:01:03;12.53;;;3.40;;
16800;SDS011;8518;53.236;10.384;2023-04-25T05:03:31;17.13;;;3.63;;
16800;SDS011;8518;53.236;10.384;2023-04-25T05:05:58;10.90;;;3.30;;
16800;SDS011;8518;53.236;10.384;2023-04-25T05:08:23;13.17;;;3.93;;
16800;SDS011;8518;53.236;10.384;2023-04-25T05:10:49;16.27;;;3.93;;
16800;SDS011;8518;53.236;10.384;2023-04-25T05:16:37;16.60;;;3.87;;
16800;SDS011;8518;53.236;10.384;2023-04-25T05:19:12;15.40;;;4.40;;
16800;SDS011;8518;53.236;10.384;2023-04-25T05:21:38;16.00;;;3.73;;
16800;SDS011;8518;53.236;10.384;2023-04-25T05:27:28;12.50;;;3.67;;
16800;SDS011;8518;53.236;10.384;2023-04-25T05:33:16;17.23;;;3.63;;
16800;SDS011;8518;53.236;10.384;2023-04-25T05:35:42;10.53;;;3.13;;
16800;SDS011;8518;53.236;10.384;2023-04-25T05:38:07;12.13;;;3.40;;
16800;SDS011;8518;53.236;10.384;2023-04-25T05:40:33;16.27;;;3.33;;
16800;SDS011;8518;53.236;10.384;2023-04-25T05:46:23;9.47;;;2.77;;
16800;SDS011;8518;53.236;10.384;2023-04-25T05:48:48;12.03;;;2.83;;
16800;SDS011;8518;53.236;10.384;2023-04-25T05:51:14;15.40;;;3.43;;
16800;SDS011;8518;53.236;10.384;2023-04-25T05:57:02;10.87;;;3.03;;
16800;SDS011;8518;53.236;10.384;2023-04-25T05:59:31;9.20;;;2.90;;
16800;SDS011;8518;53.236;10.384;2023-04-25T06:01:56;11.20;;;3.17;;
16800;SDS011;8518;53.236;10.384;2023-04-25T06:04:22;13.80;;;3.07;;
16800;SDS011;8518;53.236;10.384;2023-04-25T06:06:49;11.40;;;2.87;;
16800;SDS011;8518;53.236;10.384;2023-04-25T06:09:15;17.33;;;3.50;;
16800;SDS011;8518;53.236;10.384;2023-04-25T06:11:41;13.27;;;3.17;;
16800;SDS011;8518;53.236;10.384;2023-04-25T06:17:31;15.80;;;3.20;;
16800;SDS011;8518;53.236;10.384;2023-04-25T06:23:33;13.23;;;2.87;;
16800;SDS011;8518;53.236;10.384;2023-04-25T06:25:59;12.43;;;3.17;;
16800;SDS011;8518;53.236;10.384;2023-04-25T06:28:24;12.33;;;3.03;;
16800;SDS011;8518;53.236;10.384;2023-04-25T06:30:53;11.97;;;2.90;;
16800;SDS011;8518;53.236;10.384;2023-04-25T06:36:40;8.90;;;2.57;;
16800;SDS011;8518;53.236;10.384;2023-04-25T06:42:28;12.53;;;2.47;;
16800;SDS011;8518;53.236;10.384;2023-04-25T06:44:55;12.37;;;2.73;;
16800;SDS011;8518;53.236;10.384;2023-04-25T06:47:21;12.37;;;2.97;;
16800;SDS011;8518;53.236;10.384;2023-04-25T06:49:46;15.73;;;2.70;;
16800;SDS011;8518;53.236;10.384;2023-04-25T06:52:13;9.37;;;2.33;;
16800;SDS011;8518;53.236;10.384;2023-04-25T06:54:39;9.70;;;2.90;;
16800;SDS011;8518;53.236;10.384;2023-04-25T06:57:04;12.07;;;2.37;;
16800;SDS011;8518;53.236;10.384;2023-04-25T06:59:30;10.20;;;2.30;;
16800;SDS011;8518;53.236;10.384;2023-04-25T07:01:56;12.63;;;2.67;;
16800;SDS011;8518;53.236;10.384;2023-04-25T07:04:21;15.23;;;3.17;;
16800;SDS011;8518;53.236;10.384;2023-04-25T07:06:47;15.83;;;2.80;;
16800;SDS011;8518;53.236;10.384;2023-04-25T07:09:14;11.20;;;2.60;;
16800;SDS011;8518;53.236;10.384;2023-04-25T07:11:40;15.10;;;2.60;;
16800;SDS011;8518;53.236;10.384;2023-04-25T07:17:28;13.33;;;3.00;;
16800;SDS011;8518;53.236;10.384;2023-04-25T07:19:53;8.57;;;2.40;;
16800;SDS011;8518;53.236;10.384;2023-04-25T07:22:19;10.13;;;2.53;;
16800;SDS011;8518;53.236;10.384;2023-04-25T07:24:47;11.77;;;2.73;;
16800;SDS011;8518;53.236;10.384;2023-04-25T07:27:18;12.50;;;2.80;;
16800;SDS011;8518;53.236;10.384;2023-04-25T07:29:44;13.47;;;3.20;;
16800;SDS011;8518;53.236;10.384;2023-04-25T07:32:10;17.17;;;3.63;;
16800;SDS011;8518;53.236;10.384;2023-04-25T07:37:58;9.67;;;2.20;;
16800;SDS011;8518;53.236;10.384;2023-04-25T07:40:26;10.20;;;2.30;;
16800;SDS011;8518;53.236;10.384;2023-04-25T07:46:14;13.53;;;2.73;;
16800;SDS011;8518;53.236;10.384;2023-04-25T07:48:42;9.23;;;2.67;;
16800;SDS011;8518;53.236;10.384;2023-04-25T07:56:56;9.53;;;2.40;;
16800;SDS011;8518;53.236;10.384;2023-04-25T07:59:22;8.03;;;2.00;;
16800;SDS011;8518;53.236;10.384;2023-04-25T08:01:50;7.77;;;2.57;;
16800;SDS011;8518;53.236;10.384;2023-04-25T08:07:38;9.53;;;2.20;;
16800;SDS011;8518;53.236;10.384;2023-04-25T08:10:07;9.07;;;2.03;;
16800;SDS011;8518;53.236;10.384;2023-04-25T08:12:35;9.23;;;2.17;;
16800;SDS011;8518;53.236;10.384;2023-04-25T08:15:01;8.70;;;2.13;;
16800;SDS011;8518;53.236;10.384;2023-04-25T08:17:29;5.90;;;1.50;;
16800;SDS011;8518;53.236;10.384;2023-04-25T08:19:55;6.67;;;1.77;;
16800;SDS011;8518;53.236;10.384;2023-04-25T08:22:21;4.47;;;1.80;;
16800;SDS011;8518;53.236;10.384;2023-04-25T08:24:47;5.83;;;1.53;;
16800;SDS011;8518;53.236;10.384;2023-04-25T08:27:17;8.67;;;1.90;;
16800;SDS011;8518;53.236;10.384;2023-04-25T08:29:43;4.93;;;1.70;;
16800;SDS011;8518;53.236;10.384;2023-04-25T08:32:11;7.50;;;2.00;;
16800;SDS011;8518;53.236;10.384;2023-04-25T08:37:59;3.43;;;1.20;;
16800;SDS011;8518;53.236;10.384;2023-04-25T08:43:47;5.17;;;1.23;;
16800;SDS011;8518;53.236;10.384;2023-04-25T08:46:19;8.60;;;1.70;;
16800;SDS011;8518;53.236;10.384;2023-04-25T08:48:45;5.80;;;1.40;;
16800;SDS011;8518;53.236;10.384;2023-04-25T08:51:15;3.30;;;1.33;;
16800;SDS011;8518;53.236;10.384;2023-04-25T08:57:08;6.63;;;1.90;;
16800;SDS011;8518;53.236;10.384;2023-04-25T08:59:36;4.43;;;1.23;;
16800;SDS011;8518;53.236;10.384;2023-04-25T09:02:04;4.93;;;1.43;;
16800;SDS011;8518;53.236;10.384;2023-04-25T09:07:56;5.33;;;1.70;;
16800;SDS011;8518;53.236;10.384;2023-04-25T09:10:22;5.37;;;1.33;;
16800;SDS011;8518;53.236;10.384;2023-04-25T09:16:10;5.37;;;1.50;;
16800;SDS011;8518;53.236;10.384;2023-04-25T09:21:58;7.27;;;1.80;;
16800;SDS011;8518;53.236;10.384;2023-04-25T09:27:50;7.40;;;1.60;;
16800;SDS011;8518;53.236;10.384;2023-04-25T09:30:30;4.40;;;1.50;;
16800;SDS011;8518;53.236;10.384;2023-04-25T09:36:20;3.53;;;1.00;;
16800;SDS011;8518;53.236;10.384;2023-04-25T09:42:16;4.33;;;0.90;;
16800;SDS011;8518;53.236;10.384;2023-04-25T09:44:46;3.97;;;0.90;;
16800;SDS011;8518;53.236;10.384;2023-04-25T09:47:12;4.03;;;1.13;;
16800;SDS011;8518;53.236;10.384;2023-04-25T09:49:40;5.90;;;1.20;;
16800;SDS011;8518;53.236;10.384;2023-04-25T09:52:13;3.97;;;0.90;;
16800;SDS011;8518;53.236;10.384;2023-04-25T09:54:40;4.33;;;1.13;;
16800;SDS011;8518;53.236;10.384;2023-04-25T09:57:10;5.50;;;1.27;;
16800;SDS011;8518;53.236;10.384;2023-04-25T09:59:43;4.67;;;1.30;;
16800;SDS011;8518;53.236;10.384;2023-04-25T10:02:43;4.80;;;0.97;;
16800;SDS011;8518;53.236;10.384;2023-04-25T10:05:09;5.37;;;1.93;;
16800;SDS011;8518;53.236;10.384;2023-04-25T10:07:35;5.40;;;1.43;;
16800;SDS011;8518;53.236;10.384;2023-04-25T10:10:03;7.90;;;1.80;;
16800;SDS011;8518;53.236;10.384;2023-04-25T10:12:30;5.27;;;1.53;;
16800;SDS011;8518;53.236;10.384;2023-04-25T10:14:58;6.17;;;1.30;;
16800;SDS011;8518;53.236;10.384;2023-04-25T10:17:25;3.70;;;1.10;;
16800;SDS011;8518;53.236;10.384;2023-04-25T10:19:52;2.53;;;0.70;;
16800;SDS011;8518;53.236;10.384;2023-04-25T10:22:39;4.13;;;0.90;;
16800;SDS011;8518;53.236;10.384;2023-04-25T10:25:07;2.47;;;0.87;;
16800;SDS011;8518;53.236;10.384;2023-04-25T10:27:34;4.00;;;0.93;;
16800;SDS011;8518;53.236;10.384;2023-04-25T10:30:10;4.13;;;0.90;;
16800;SDS011;8518;53.236;10.384;2023-04-25T10:32:41;9.53;;;0.90;;
16800;SDS011;8518;53.236;10.384;2023-04-25T10:35:18;2.23;;;0.97;;
16800;SDS011;8518;53.236;10.384;2023-04-25T10:40:31;4.43;;;1.07;;
16800;SDS011;8518;53.236;10.384;2023-04-25T10:46:29;4.63;;;1.30;;
16800;SDS011;8518;53.236;10.384;2023-04-25T10:49:01;4.20;;;1.00;;
16800;SDS011;8518;53.236;10.384;2023-04-25T10:51:33;5.53;;;1.13;;
16800;SDS011;8518;53.236;10.384;2023-04-25T10:57:29;4.20;;;1.20;;
16800;SDS011;8518;53.236;10.384;2023-04-25T11:03:28;9.43;;;1.30;;
16800;SDS011;8518;53.236;10.384;2023-04-25T11:05:55;5.07;;;1.00;;
16800;SDS011;8518;53.236;10.384;2023-04-25T11:08:36;5.13;;;1.30;;
16800;SDS011;8518;53.236;10.384;2023-04-25T11:11:15;4.68;;;1.55;;
16800;SDS011;8518;53.236;10.384;2023-04-25T11:17:08;5.38;;;1.45;;
16800;SDS011;8518;53.236;10.384;2023-04-25T11:19:36;3.42;;;1.30;;
16800;SDS011;8518;53.236;10.384;2023-04-25T11:22:04;6.50;;;1.85;;
16800;SDS011;8518;53.236;10.384;2023-04-25T11:27:54;4.03;;;1.30;;
16800;SDS011;8518;53.236;10.384;2023-04-25T11:30:23;4.85;;;1.25;;
16800;SDS011;8518;53.236;10.384;2023-04-25T11:36:12;4.75;;;1.55;;
16800;SDS011;8518;53.236;10.384;2023-04-25T11:42:00;4.97;;;1.40;;
16800;SDS011;8518;53.236;10.384;2023-04-25T11:47:51;4.70;;;1.00;;
16800;SDS011;8518;53.236;10.384;2023-04-25T11:50:17;3.60;;;1.10;;
16800;SDS011;8518;53.236;10.384;2023-04-25T11:52:43;7.20;;;1.30;;
16800;SDS011;8518;53.236;10.384;2023-04-25T11:55:12;3.83;;;0.90;;
16800;SDS011;8518;53.236;10.384;2023-04-25T11:57:40;3.53;;;0.83;;
16800;SDS011;8518;53.236;10.384;2023-04-25T12:00:08;2.03;;;0.90;;
16800;SDS011;8518;53.236;10.384;2023-04-25T12:02:42;4.10;;;1.13;;
16800;SDS011;8518;53.236;10.384;2023-04-25T12:05:09;4.40;;;1.10;;
16800;SDS011;8518;53.236;10.384;2023-04-25T12:07:36;4.17;;;0.97;;
16800;SDS011;8518;53.236;10.384;2023-04-25T12:10:13;2.23;;;0.90;;
16800;SDS011;8518;53.236;10.384;2023-04-25T12:12:41;4.57;;;1.23;;
16800;SDS011;8518;53.236;10.384;2023-04-25T12:15:08;4.77;;;1.20;;
16800;SDS011;8518;53.236;10.384;2023-04-25T12:17:45;5.77;;;1.27;;
16800;SDS011;8518;53.236;10.384;2023-04-25T12:20:17;7.03;;;1.30;;
16800;SDS011;8518;53.236;10.384;2023-04-25T12:26:07;3.60;;;1.07;;
16800;SDS011;8518;53.236;10.384;2023-04-25T12:28:33;3.33;;;1.07;;
16800;SDS011;8518;53.236;10.384;2023-04-25T12:36:49;3.22;;;1.08;;
16800;SDS011;8518;53.236;10.384;2023-04-25T12:41:47;4.22;;;1.05;;
16800;SDS011;8518;53.236;10.384;2023-04-25T12:47:35;2.95;;;1.10;;
16800;SDS011;8518;53.236;10.384;2023-04-25T12:50:04;6.63;;;1.10;;
16800;SDS011;8518;53.236;10.384;2023-04-25T12:52:30;8.67;;;1.43;;
16800;SDS011;8518;53.236;10.384;2023-04-25T12:54:56;4.77;;;1.10;;
16800;SDS011;8518;53.236;10.384;2023-04-25T12:57:25;12.80;;;1.47;;
16800;SDS011;8518;53.236;10.384;2023-04-25T12:59:50;2.93;;;0.90;;
16800;SDS011;8518;53.236;10.384;2023-04-25T13:02:16;4.17;;;1.10;;
16800;SDS011;8518;53.236;10.384;2023-04-25T13:04:44;5.50;;;1.20;;
16800;SDS011;8518;53.236;10.384;2023-04-25T13:07:13;4.37;;;1.27;;
16800;SDS011;8518;53.236;10.384;2023-04-25T13:09:41;5.37;;;1.07;;
16800;SDS011;8518;53.236;10.384;2023-04-25T13:12:07;4.90;;;1.33;;
16800;SDS011;8518;53.236;10.384;2023-04-25T13:17:55;4.30;;;1.13;;
16800;SDS011;8518;53.236;10.384;2023-04-25T13:20:23;7.33;;;1.40;;
16800;SDS011;8518;53.236;10.384;2023-04-25T13:26:12;3.93;;;1.03;;
16800;SDS011;8518;53.236;10.384;2023-04-25T13:28:37;5.63;;;1.20;;
16800;SDS011;8518;53.236;10.384;2023-04-25T13:31:04;8.17;;;1.60;;
16800;SDS011;8518;53.236;10.384;2023-04-25T13:36:52;4.57;;;0.80;;
16800;SDS011;8518;53.236;10.384;2023-04-25T13:39:18;4.40;;;0.80;;
16800;SDS011;8518;53.236;10.384;2023-04-25T13:45:06;2.77;;;0.90;;
16800;SDS011;8518;53.236;10.384;2023-04-25T13:47:32;5.53;;;1.20;;
16800;SDS011;8518;53.236;10.384;2023-04-25T13:49:59;2.30;;;0.77;;
16800;SDS011;8518;53.236;10.384;2023-04-25T13:52:25;2.47;;;0.90;;
16800;SDS011;8518;53.236;10.384;2023-04-25T13:54:50;4.70;;;0.87;;
16800;SDS011;8518;53.236;10.384;2023-04-25T13:57:17;3.83;;;0.80;;
16800;SDS011;8518;53.236;10.384;2023-04-25T13:59:43;4.50;;;1.00;;
16800;SDS011;8518;53.236;10.384;2023-04-25T14:02:10;2.97;;;0.70;;
16800;SDS011;8518;53.236;10.384;2023-04-25T14:04:36;3.43;;;0.97;;
16800;SDS011;8518;53.236;10.384;2023-04-25T14:07:02;5.33;;;1.33;;
16800;SDS011;8518;53.236;10.384;2023-04-25T14:09:28;2.60;;;0.80;;
16800;SDS011;8518;53.236;10.384;2023-04-25T14:11:54;3.13;;;1.10;;
16800;SDS011;8518;53.236;10.384;2023-04-25T14:17:42;2.77;;;1.00;;
16800;SDS011;8518;53.236;10.384;2023-04-25T14:20:08;4.73;;;1.07;;
16800;SDS011;8518;53.236;10.384;2023-04-25T14:22:35;2.97;;;1.13;;
16800;SDS011;8518;53.236;10.384;2023-04-25T14:25:01;5.73;;;1.00;;
16800;SDS011;8518;53.236;10.384;2023-04-25T14:27:28;5.57;;;1.40;;
16800;SDS011;8518;53.236;10.384;2023-04-25T14:29:53;4.03;;;1.40;;
16800;SDS011;8518;53.236;10.384;2023-04-25T14:32:19;4.07;;;1.20;;
16800;SDS011;8518;53.236;10.384;2023-04-25T14:34:45;3.83;;;1.20;;
16800;SDS011;8518;53.236;10.384;2023-04-25T14:37:11;6.50;;;1.70;;
16800;SDS011;8518;53.236;10.384;2023-04-25T14:39:36;5.03;;;1.20;;
16800;SDS011;8518;53.236;10.384;2023-04-25T14:42:02;3.80;;;1.20;;
16800;SDS011;8518;53.236;10.384;2023-04-25T14:47:50;4.83;;;1.33;;
16800;SDS011;8518;53.236;10.384;2023-04-25T14:50:17;5.50;;;1.57;;
16800;SDS011;8518;53.236;10.384;2023-04-25T14:56:05;6.97;;;1.43;;
16800;SDS011;8518;53.236;10.384;2023-04-25T14:58:32;4.93;;;1.03;;
16800;SDS011;8518;53.236;10.384;2023-04-25T15:00:58;4.23;;;1.47;;
16800;SDS011;8518;53.236;10.384;2023-04-25T15:06:46;3.43;;;1.03;;
16800;SDS011;8518;53.236;10.384;2023-04-25T15:09:12;4.87;;;1.53;;
16800;SDS011;8518;53.236;10.384;2023-04-25T15:11:37;2.63;;;1.07;;
16800;SDS011;8518;53.236;10.384;2023-04-25T15:17:30;5.70;;;1.50;;
16800;SDS011;8518;53.236;10.384;2023-04-25T15:19:56;5.23;;;1.50;;
16800;SDS011;8518;53.236;10.384;2023-04-25T15:22:22;5.77;;;1.60;;
16800;SDS011;8518;53.236;10.384;2023-04-25T15:24:47;4.67;;;1.10;;
16800;SDS011;8518;53.236;10.384;2023-04-25T15:27:13;3.70;;;1.10;;
16800;SDS011;8518;53.236;10.384;2023-04-25T15:29:39;3.93;;;1.27;;
16800;SDS011;8518;53.236;10.384;2023-04-25T15:32:05;5.20;;;1.60;;
16800;SDS011;8518;53.236;10.384;2023-04-25T15:37:53;6.20;;;1.40;;
16800;SDS011;8518;53.236;10.384;2023-04-25T15:40:18;3.37;;;1.20;;
16800;SDS011;8518;53.236;10.384;2023-04-25T15:46:06;4.97;;;1.53;;
16800;SDS011;8518;53.236;10.384;2023-04-25T15:48:32;4.53;;;1.30;;
16800;SDS011;8518;53.236;10.384;2023-04-25T15:50:58;4.50;;;1.47;;
16800;SDS011;8518;53.236;10.384;2023-04-25T15:56:47;3.43;;;1.10;;
16800;SDS011;8518;53.236;10.384;2023-04-25T15:59:12;3.07;;;1.00;;
16800;SDS011;8518;53.236;10.384;2023-04-25T16:01:38;5.17;;;1.23;;
16800;SDS011;8518;53.236;10.384;2023-04-25T16:07:26;4.63;;;1.17;;
16800;SDS011;8518;53.236;10.384;2023-04-25T16:09:52;5.37;;;1.03;;
16800;SDS011;8518;53.236;10.384;2023-04-25T16:12:20;5.10;;;1.53;;
16800;SDS011;8518;53.236;10.384;2023-04-25T16:14:46;3.50;;;1.50;;
16800;SDS011;8518;53.236;10.384;2023-04-25T16:17:12;4.07;;;1.40;;
16800;SDS011;8518;53.236;10.384;2023-04-25T16:19:37;4.47;;;1.43;;
16800;SDS011;8518;53.236;10.384;2023-04-25T16:22:03;5.40;;;1.03;;
16800;SDS011;8518;53.236;10.384;2023-04-25T16:27:51;5.20;;;1.33;;
16800;SDS011;8518;53.236;10.384;2023-04-25T16:30:16;6.03;;;1.30;;
16800;SDS011;8518;53.236;10.384;2023-04-25T16:32:43;4.90;;;1.40;;
16800;SDS011;8518;53.236;10.384;2023-04-25T16:35:08;8.57;;;1.67;;
16800;SDS011;8518;53.236;10.384;2023-04-25T16:37:36;4.73;;;0.87;;
16800;SDS011;8518;53.236;10.384;2023-04-25T16:40:01;5.90;;;1.20;;
16800;SDS011;8518;53.236;10.384;2023-04-25T16:42:27;7.07;;;1.50;;
16800;SDS011;8518;53.236;10.384;2023-04-25T16:44:52;2.90;;;1.10;;
16800;SDS011;8518;53.236;10.384;2023-04-25T16:47:18;5.33;;;1.40;;
16800;SDS011;8518;53.236;10.384;2023-04-25T16:49:44;5.20;;;0.90;;
16800;SDS011;8518;53.236;10.384;2023-04-25T16:52:10;5.00;;;1.27;;
16800;SDS011;8518;53.236;10.384;2023-04-25T16:58:01;3.40;;;1.00;;
16800;SDS011;8518;53.236;10.384;2023-04-25T17:03:49;4.87;;;1.00;;
16800;SDS011;8518;53.236;10.384;2023-04-25T17:06:14;6.20;;;1.30;;
16800;SDS011;8518;53.236;10.384;2023-04-25T17:08:41;5.03;;;1.13;;
16800;SDS011;8518;53.236;10.384;2023-04-25T17:11:06;4.80;;;1.63;;
16800;SDS011;8518;53.236;10.384;2023-04-25T17:16:55;6.63;;;2.03;;
16800;SDS011;8518;53.236;10.384;2023-04-25T17:19:21;8.10;;;1.30;;
16800;SDS011;8518;53.236;10.384;2023-04-25T17:21:46;5.67;;;1.40;;
16800;SDS011;8518;53.236;10.384;2023-04-25T17:27:34;5.10;;;0.93;;
16800;SDS011;8518;53.236;10.384;2023-04-25T17:30:01;4.27;;;1.23;;
16800;SDS011;8518;53.236;10.384;2023-04-25T17:32:28;3.17;;;0.93;;
16800;SDS011;8518;53.236;10.384;2023-04-25T17:34:54;4.10;;;1.17;;
16800;SDS011;8518;53.236;10.384;2023-04-25T17:37:20;4.13;;;1.10;;
16800;SDS011;8518;53.236;10.384;2023-04-25T17:39:47;3.60;;;1.10;;
16800;SDS011;8518;53.236;10.384;2023-04-25T17:42:12;5.53;;;0.90;;
16800;SDS011;8518;53.236;10.384;2023-04-25T17:44:44;2.93;;;0.90;;
16800;SDS011;8518;53.236;10.384;2023-04-25T17:47:12;3.23;;;1.10;;
16800;SDS011;8518;53.236;10.384;2023-04-25T17:49:38;2.30;;;0.90;;
16800;SDS011;8518;53.236;10.384;2023-04-25T17:52:04;5.67;;;1.60;;
16800;SDS011;8518;53.236;10.384;2023-04-25T17:57:53;3.80;;;1.40;;
16800;SDS011;8518;53.236;10.384;2023-04-25T18:00:23;3.77;;;1.33;;
16800;SDS011;8518;53.236;10.384;2023-04-25T18:06:11;3.70;;;1.10;;
16800;SDS011;8518;53.236;10.384;2023-04-25T18:08:39;5.30;;;1.77;;
16800;SDS011;8518;53.236;10.384;2023-04-25T18:11:05;5.53;;;1.10;;
16800;SDS011;8518;53.236;10.384;2023-04-25T18:16:53;6.07;;;1.30;;
16800;SDS011;8518;53.236;10.384;2023-04-25T18:19:18;4.20;;;1.37;;
16800;SDS011;8518;53.236;10.384;2023-04-25T18:21:51;5.50;;;1.40;;
16800;SDS011;8518;53.236;10.384;2023-04-25T18:27:42;6.40;;;1.57;;
16800;SDS011;8518;53.236;10.384;2023-04-25T18:33:31;7.03;;;1.37;;
16800;SDS011;8518;53.236;10.384;2023-04-25T18:35:56;3.77;;;1.30;;
16800;SDS011;8518;53.236;10.384;2023-04-25T18:38:23;6.07;;;1.23;;
16800;SDS011;8518;53.236;10.384;2023-04-25T18:40:48;4.57;;;1.50;;
16800;SDS011;8518;53.236;10.384;2023-04-25T18:46:36;7.80;;;1.23;;
16800;SDS011;8518;53.236;10.384;2023-04-25T18:49:04;2.87;;;1.13;;
16800;SDS011;8518;53.236;10.384;2023-04-25T18:51:30;5.73;;;1.40;;
16800;SDS011;8518;53.236;10.384;2023-04-25T18:57:27;6.20;;;1.40;;
16800;SDS011;8518;53.236;10.384;2023-04-25T18:59:53;8.00;;;1.80;;
16800;SDS011;8518;53.236;10.384;2023-04-25T19:02:18;3.27;;;1.07;;
16800;SDS011;8518;53.236;10.384;2023-04-25T19:04:44;9.27;;;1.60;;
16800;SDS011;8518;53.236;10.384;2023-04-25T19:07:10;5.07;;;1.67;;
16800;SDS011;8518;53.236;10.384;2023-04-25T19:09:36;7.77;;;1.67;;
16800;SDS011;8518;53.236;10.384;2023-04-25T19:12:02;4.80;;;1.40;;
16800;SDS011;8518;53.236;10.384;2023-04-25T19:17:49;4.27;;;1.20;;
16800;SDS011;8518;53.236;10.384;2023-04-25T19:20:15;5.80;;;1.60;;
16800;SDS011;8518;53.236;10.384;2023-04-25T19:22:41;7.47;;;1.53;;
16800;SDS011;8518;53.236;10.384;2023-04-25T19:25:07;4.53;;;1.30;;